Time;durP1;ratioP1;P1;durP2;ratioP2;P2;SDS_P1;SDS_P2;PMS_P1;PMS_P2;Temp;Humidity;BMP_temperature;BMP_pressure;BME280_temperature;BME280_humidity;BME280_pressure;Samples;Min_cycle;Max_cycle;Signal;HPM_P1;HPM_P2
2022/03/12 00:01:37;;;;;;;12.00;5.75;;;;;;;3.88;42.35;98923.03;4999845;28;20100;-70
2022/03/12 00:04:06;;;;;;;12.23;5.82;;;;;;;3.94;42.82;98917.03;4996839;28;20084;-69
2022/03/12 00:06:33;;;;;;;11.05;5.93;;;;;;;3.69;43.43;98919.56;4994957;28;20164;-70
2022/03/12 00:08:58;;;;;;;11.40;5.65;;;;;;;3.54;43.80;98921.13;4999266;28;20549;-70
2022/03/12 00:11:27;;;;;;;13.70;5.60;;;;;;;3.58;43.82;98927.81;4977826;28;20476;-69
2022/03/12 00:13:53;;;;;;;9.85;6.13;;;;;;;3.72;43.40;98942.47;4988619;28;20559;-70
2022/03/12 00:16:24;;;;;;;13.45;5.68;;;;;;;3.85;42.03;98936.69;4986522;28;20038;-70
2022/03/12 00:18:55;;;;;;;12.68;5.53;;;;;;;3.79;42.46;98919.44;4990034;28;20832;-69
2022/03/12 00:21:23;;;;;;;10.00;6.15;;;;;;;3.95;42.71;98945.47;4991509;28;20026;-70
2022/03/12 00:23:50;;;;;;;14.23;5.43;;;;;;;4.07;41.82;98946.88;4993568;28;20026;-70
2022/03/12 00:26:16;;;;;;;11.82;5.93;;;;;;;4.11;41.80;98940.25;4992464;28;20034;-70
2022/03/12 00:28:43;;;;;;;12.43;5.78;;;;;;;4.10;41.71;98943.88;5007764;28;20029;-69
2022/03/12 00:31:09;;;;;;;9.95;5.70;;;;;;;3.92;41.40;98922.53;4984668;28;20626;-71
2022/03/12 00:33:35;;;;;;;11.93;5.93;;;;;;;4.24;41.17;98938.94;4982746;28;20110;-70
2022/03/12 00:36:02;;;;;;;12.02;5.63;;;;;;;4.20;41.37;98927.72;4984708;28;20026;-69
2022/03/12 00:38:28;;;;;;;10.68;5.28;;;;;;;4.32;40.70;98942.53;4986758;28;20073;-70
2022/03/12 00:40:54;;;;;;;10.43;5.20;;;;;;;4.36;40.78;98943.84;4992150;28;20026;-70
2022/03/12 00:43:20;;;;;;;10.38;5.20;;;;;;;4.31;40.20;98935.47;4993173;28;20425;-69
2022/03/12 00:45:46;;;;;;;10.77;5.90;;;;;;;4.20;40.40;98919.69;4992828;28;20034;-71
2022/03/12 00:48:12;;;;;;;10.82;5.63;;;;;;;4.33;41.39;98943.34;4993056;28;20026;-70
2022/03/12 00:50:37;;;;;;;13.85;5.25;;;;;;;4.28;40.88;98933.13;5008874;28;20038;-70
2022/03/12 00:53:03;;;;;;;11.82;5.88;;;;;;;4.27;41.66;98928.75;4992513;28;20230;-69
2022/03/12 00:55:29;;;;;;;10.45;5.28;;;;;;;4.14;41.61;98945.28;4989971;28;20481;-69
2022/03/12 00:57:55;;;;;;;10.43;5.95;;;;;;;3.88;41.59;98912.31;4992274;28;20034;-69
2022/03/12 01:00:22;;;;;;;10.07;5.50;;;;;;;4.00;41.68;98942.31;5001049;28;20022;-70
2022/03/12 01:02:47;;;;;;;14.20;6.35;;;;;;;4.05;41.89;98956.91;4990194;28;20034;-69
2022/03/12 01:05:15;;;;;;;11.10;5.18;;;;;;;4.11;41.24;98958.97;4991895;28;20033;-69
2022/03/12 01:07:41;;;;;;;13.30;5.53;;;;;;;4.08;42.17;98953.91;4994188;28;20101;-70
2022/03/12 01:10:07;;;;;;;12.35;5.03;;;;;;;3.84;41.93;98906.44;4994824;28;20505;-70
2022/03/12 01:12:33;;;;;;;10.20;5.47;;;;;;;3.97;41.61;98919.38;4994865;28;20034;-70
2022/03/12 01:14:58;;;;;;;9.70;5.07;;;;;;;3.93;41.49;98921.56;5000024;28;20026;-70
2022/03/12 01:17:24;;;;;;;10.23;5.75;;;;;;;4.18;41.12;98951.97;4992080;28;20367;-70
2022/03/12 01:19:49;;;;;;;11.55;5.68;;;;;;;3.99;41.59;98936.13;4985625;28;20430;-70
2022/03/12 01:22:20;;;;;;;11.93;5.38;;;;;;;4.11;41.03;98950.06;4982550;28;20040;-70
2022/03/12 01:24:46;;;;;;;12.38;5.63;;;;;;;4.00;42.14;98948.50;4983169;28;20030;-70
2022/03/12 01:27:14;;;;;;;8.32;4.75;;;;;;;4.05;41.58;98934.66;4985117;28;20038;-67
2022/03/12 01:29:39;;;;;;;12.32;5.57;;;;;;;4.05;41.15;98932.81;4985701;28;20048;-67
2022/03/12 01:32:05;;;;;;;10.75;5.60;;;;;;;4.21;41.28;98942.78;4991964;28;20470;-68
2022/03/12 01:34:30;;;;;;;11.40;5.18;;;;;;;4.27;40.96;98938.63;4991801;28;20038;-70
2022/03/12 01:36:56;;;;;;;9.82;5.20;;;;;;;4.24;41.08;98921.03;4992091;28;20018;-68
2022/03/12 01:39:21;;;;;;;12.10;5.22;;;;;;;4.09;41.49;98911.94;4991846;28;20482;-68
2022/03/12 01:41:46;;;;;;;9.75;5.47;;;;;;;4.16;41.67;98926.34;4996728;28;20108;-68
2022/03/12 01:44:15;;;;;;;11.70;5.75;;;;;;;3.92;42.67;98908.31;5002830;28;20506;-68
2022/03/12 01:46:46;;;;;;;13.33;5.63;;;;;;;3.84;42.22;98905.59;4991971;28;20624;-68
2022/03/12 01:49:18;;;;;;;9.85;5.63;;;;;;;3.88;42.66;98936.41;4994993;28;20326;-69
2022/03/12 01:51:45;;;;;;;12.43;5.78;;;;;;;4.07;41.04;98938.03;4995998;28;20070;-68
2022/03/12 01:54:12;;;;;;;12.38;6.28;;;;;;;4.11;41.20;98931.34;4992837;28;20090;-68
2022/03/12 01:56:41;;;;;;;10.70;6.07;;;;;;;4.10;42.15;98949.25;4993772;28;20108;-68
2022/03/12 01:59:06;;;;;;;10.07;5.30;;;;;;;3.96;42.49;98939.13;4995121;28;20026;-69
2022/03/12 02:01:32;;;;;;;11.80;5.88;;;;;;;3.94;43.10;98938.44;4991659;28;20272;-69
2022/03/12 02:04:00;;;;;;;13.73;5.93;;;;;;;4.14;41.05;98953.31;4974135;28;20485;-68
2022/03/12 02:06:26;;;;;;;12.20;5.10;;;;;;;4.01;41.28;98939.50;4998324;28;20037;-68
2022/03/12 02:09:01;;;;;;;12.00;5.95;;;;;;;4.05;41.70;98953.41;4972858;28;20068;-69
2022/03/12 02:11:29;;;;;;;10.75;5.63;;;;;;;4.12;41.07;98952.63;4990687;28;20521;-68
2022/03/12 02:14:09;;;;;;;12.88;5.18;;;;;;;4.20;41.02;98951.00;4997159;28;20049;-69
2022/03/12 02:16:35;;;;;;;20.58;5.90;;;;;;;4.10;41.71;98946.56;5012101;28;20052;-68
2022/03/12 02:19:01;;;;;;;9.45;5.43;;;;;;;4.01;43.33;98944.84;5005343;28;20382;-68
2022/03/12 02:21:34;;;;;;;9.00;5.43;;;;;;;3.97;42.99;98953.34;4997958;28;20080;-68
2022/03/12 02:24:10;;;;;;;11.75;6.22;;;;;;;3.82;42.41;98951.22;4995614;28;20026;-68
2022/03/12 02:26:38;;;;;;;11.85;5.65;;;;;;;3.91;43.98;98946.78;4992677;28;20041;-69
2022/03/12 02:29:06;;;;;;;8.55;5.15;;;;;;;3.80;41.72;98926.50;5005483;28;20049;-68
2022/03/12 02:31:31;;;;;;;11.07;6.35;;;;;;;4.00;42.04;98945.00;4995332;28;20026;-68
2022/03/12 02:34:01;;;;;;;10.32;6.18;;;;;;;3.97;43.47;98946.16;4995648;28;20034;-68
2022/03/12 02:36:27;;;;;;;9.82;5.43;;;;;;;3.64;43.29;98894.25;4995763;28;20030;-68
2022/03/12 02:38:54;;;;;;;11.13;5.13;;;;;;;3.67;42.79;98921.53;4993362;28;20093;-68
2022/03/12 02:41:22;;;;;;;10.27;5.78;;;;;;;3.56;43.78;98905.72;4995993;28;20022;-67
2022/03/12 02:43:48;;;;;;;12.70;5.47;;;;;;;3.71;43.68;98949.66;4986418;28;20034;-68
2022/03/12 02:46:14;;;;;;;9.55;5.00;;;;;;;3.69;44.38;98949.00;4987371;28;20030;-70
2022/03/12 02:48:40;;;;;;;14.07;5.75;;;;;;;3.48;44.39;98916.38;4995749;28;20485;-68
2022/03/12 02:51:06;;;;;;;9.93;5.15;;;;;;;3.65;44.17;98952.97;5000037;28;20033;-68
2022/03/12 02:53:32;;;;;;;16.58;6.05;;;;;;;3.59;44.85;98953.59;5011538;28;20026;-69
2022/03/12 02:55:58;;;;;;;9.82;5.75;;;;;;;3.53;44.46;98943.50;4990540;28;20030;-68
2022/03/12 02:58:23;;;;;;;13.00;6.22;;;;;;;3.22;45.66;98890.44;5008269;28;20393;-68
2022/03/12 03:00:49;;;;;;;12.60;5.30;;;;;;;3.55;45.23;98954.06;4995048;28;20022;-67
2022/03/12 03:03:14;;;;;;;19.42;5.97;;;;;;;3.41;45.39;98944.75;5007959;28;20087;-67
2022/03/12 03:05:50;;;;;;;13.40;6.07;;;;;;;3.47;45.01;98957.50;5000125;28;20045;-68
2022/03/12 03:08:20;;;;;;;13.38;5.95;;;;;;;3.38;45.54;98969.09;4994208;28;20474;-68
2022/03/12 03:10:50;;;;;;;13.30;5.88;;;;;;;3.28;45.86;98975.38;4998706;28;20026;-68
2022/03/12 03:13:16;;;;;;;12.15;6.28;;;;;;;3.26;45.57;98973.84;5000710;28;20037;-69
2022/03/12 03:15:54;;;;;;;11.05;5.70;;;;;;;3.19;45.02;98959.41;4992694;28;20018;-67
2022/03/12 03:18:22;;;;;;;11.25;5.60;;;;;;;3.25;45.87;98970.34;4977987;28;20485;-67
2022/03/12 03:20:49;;;;;;;11.93;5.88;;;;;;;3.17;46.02;98972.06;5000160;28;20429;-68
2022/03/12 03:23:14;;;;;;;12.45;5.40;;;;;;;3.16;45.96;98973.91;5009110;28;20026;-68
2022/03/12 03:25:40;;;;;;;12.25;5.28;;;;;;;3.12;45.82;98972.56;5001424;28;20398;-68
2022/03/12 03:28:06;;;;;;;13.05;6.38;;;;;;;3.08;46.53;98973.84;4990366;28;20018;-68
2022/03/12 03:30:37;;;;;;;11.15;5.45;;;;;;;3.21;45.99;98963.59;4993250;28;20034;-68
2022/03/12 03:33:10;;;;;;;10.07;5.53;;;;;;;3.14;46.19;98978.56;4996018;28;20026;-68
2022/03/12 03:35:39;;;;;;;10.75;5.82;;;;;;;3.01;45.88;98962.94;4989497;28;20022;-69
2022/03/12 03:38:09;;;;;;;11.43;5.27;;;;;;;3.12;45.47;98979.72;4988983;28;20030;-69
2022/03/12 03:40:35;;;;;;;10.05;5.00;;;;;;;3.22;46.42;98986.69;4988853;28;20046;-69
2022/03/12 03:43:01;;;;;;;12.38;5.45;;;;;;;3.16;45.60;98976.59;4993866;28;20038;-69
2022/03/12 03:45:28;;;;;;;13.07;5.30;;;;;;;3.25;45.71;98994.41;4978484;28;20030;-68
2022/03/12 03:47:55;;;;;;;11.43;5.63;;;;;;;3.24;45.95;99005.25;4994645;28;20018;-70
2022/03/12 03:50:31;;;;;;;12.13;5.80;;;;;;;2.85;46.25;98944.84;4982972;28;20022;-69
2022/03/12 03:53:03;;;;;;;11.00;6.32;;;;;;;3.15;46.14;99007.00;4994240;28;20490;-69
2022/03/12 03:55:33;;;;;;;11.30;5.88;;;;;;;3.01;46.06;98975.44;4997198;28;20028;-69
2022/03/12 03:57:59;;;;;;;11.50;6.28;;;;;;;3.20;45.76;99017.25;4995151;28;20026;-69
2022/03/12 04:00:26;;;;;;;9.68;5.50;;;;;;;3.17;46.43;99007.69;4993372;28;20026;-69
2022/03/12 04:03:01;;;;;;;11.73;5.68;;;;;;;3.21;46.41;99011.72;4998476;28;20038;-70
2022/03/12 04:05:27;;;;;;;9.70;5.57;;;;;;;3.28;46.18;99003.97;4992437;28;20081;-70
2022/03/12 04:07:52;;;;;;;9.88;5.70;;;;;;;3.19;45.98;98997.66;4992052;28;20026;-70
2022/03/12 04:10:17;;;;;;;11.98;5.85;;;;;;;3.27;46.24;99013.81;4997165;28;20039;-70
2022/03/12 04:12:42;;;;;;;9.27;5.18;;;;;;;3.31;46.03;99014.34;4999674;28;20093;-70
2022/03/12 04:15:09;;;;;;;9.93;5.65;;;;;;;3.25;46.17;99018.47;4992802;28;20117;-69
2022/03/12 04:17:34;;;;;;;12.57;5.38;;;;;;;3.12;46.01;99007.31;4988454;28;20030;-70
2022/03/12 04:20:00;;;;;;;10.32;5.13;;;;;;;3.03;45.88;98993.00;4983052;28;20098;-70
2022/03/12 04:22:26;;;;;;;11.38;5.43;;;;;;;2.93;46.36;98997.56;4994219;28;20481;-69
2022/03/12 04:24:51;;;;;;;11.05;5.75;;;;;;;3.02;46.63;99019.91;4993714;28;20109;-70
2022/03/12 04:27:16;;;;;;;11.02;5.25;;;;;;;2.99;46.45;99020.19;5010738;28;20029;-70
2022/03/12 04:29:42;;;;;;;10.02;5.45;;;;;;;2.95;46.97;99019.63;4992037;28;20030;-69
2022/03/12 04:32:10;;;;;;;10.90;5.30;;;;;;;3.01;46.51;99020.88;4990896;28;20031;-70
2022/03/12 04:34:36;;;;;;;13.25;6.68;;;;;;;2.81;46.82;98994.25;4993109;28;20478;-71
2022/03/12 04:37:02;;;;;;;9.93;6.07;;;;;;;2.92;47.09;99019.94;5012081;28;20036;-70
2022/03/12 04:39:27;;;;;;;11.80;6.22;;;;;;;2.89;46.85;99027.44;4993373;28;20149;-70
2022/03/12 04:41:53;;;;;;;13.02;6.40;;;;;;;2.79;47.15;99011.44;4992252;28;20102;-70
2022/03/12 04:44:20;;;;;;;11.93;6.07;;;;;;;2.80;47.07;99019.31;4983565;28;20048;-71
2022/03/12 04:46:45;;;;;;;12.13;6.15;;;;;;;2.65;46.97;99004.75;4956186;28;20037;-69
2022/03/12 04:49:11;;;;;;;12.77;6.72;;;;;;;2.55;47.25;99009.31;4987987;28;20022;-72
2022/03/12 04:51:36;;;;;;;13.93;6.93;;;;;;;2.63;47.32;99034.28;5011035;28;20033;-70
2022/03/12 04:54:02;;;;;;;12.10;5.47;;;;;;;2.58;47.45;99033.88;4995354;28;20712;-70
2022/03/12 04:56:27;;;;;;;10.98;5.88;;;;;;;2.35;47.80;99017.38;5012273;28;20036;-69
2022/03/12 04:58:54;;;;;;;10.23;5.75;;;;;;;2.44;47.50;99044.19;4988089;28;20030;-71
2022/03/12 05:01:25;;;;;;;12.75;6.25;;;;;;;2.40;47.55;99049.81;4989095;28;20441;-71
2022/03/12 05:03:52;;;;;;;10.93;5.10;;;;;;;2.34;47.56;99045.06;4994935;28;20421;-72
2022/03/12 05:06:18;;;;;;;11.38;5.45;;;;;;;2.31;48.59;99050.69;4975255;28;20034;-71
2022/03/12 05:08:44;;;;;;;12.75;6.75;;;;;;;2.21;48.49;99044.53;4989894;28;20105;-72
2022/03/12 05:11:09;;;;;;;12.07;6.00;;;;;;;2.04;48.33;99026.59;4992722;28;20076;-70
2022/03/12 05:13:34;;;;;;;14.20;5.63;;;;;;;2.11;48.55;99041.06;4967737;28;20034;-71
2022/03/12 05:16:04;;;;;;;8.70;5.47;;;;;;;2.15;48.36;99050.47;5004379;28;20052;-71
2022/03/12 05:18:30;;;;;;;15.35;5.55;;;;;;;1.86;48.64;99000.66;4995170;28;20084;-68
2022/03/12 05:20:56;;;;;;;12.35;5.70;;;;;;;2.23;48.85;99044.38;5000193;28;20030;-70
2022/03/12 05:23:22;;;;;;;11.05;5.53;;;;;;;2.24;48.63;99052.25;4975857;28;20037;-71
2022/03/12 05:25:49;;;;;;;10.98;5.47;;;;;;;2.28;48.68;99055.47;4990036;28;20482;-70
2022/03/12 05:28:21;;;;;;;10.60;5.03;;;;;;;2.30;48.75;99062.34;4993518;28;20030;-71
2022/03/12 05:30:47;;;;;;;14.10;5.80;;;;;;;2.33;50.22;99059.41;4975444;28;20023;-70
2022/03/12 05:33:13;;;;;;;11.38;5.88;;;;;;;2.32;49.82;99076.41;4982979;28;20026;-73
2022/03/12 05:35:41;;;;;;;11.63;5.72;;;;;;;2.12;50.41;99050.72;4969599;28;20125;-73
2022/03/12 05:38:06;;;;;;;10.48;5.47;;;;;;;2.14;50.76;99057.59;4990996;28;20109;-71
2022/03/12 05:40:38;;;;;;;15.68;5.15;;;;;;;2.15;50.34;99082.50;4971055;28;20180;-71
2022/03/12 05:43:07;;;;;;;14.85;6.15;;;;;;;2.23;50.84;99093.28;4992248;28;20027;-71
2022/03/12 05:45:32;;;;;;;12.88;6.00;;;;;;;2.21;50.81;99097.94;4982943;28;20023;-71
2022/03/12 05:47:58;;;;;;;10.85;5.57;;;;;;;2.27;51.25;99101.84;4989714;28;20049;-69
2022/03/12 05:50:24;;;;;;;13.73;6.43;;;;;;;2.16;51.28;99095.69;4985522;28;20371;-67
2022/03/12 05:52:49;;;;;;;11.38;6.60;;;;;;;2.23;50.70;99111.13;4991954;28;20032;-74
2022/03/12 05:55:17;;;;;;;14.00;6.05;;;;;;;2.08;50.73;99089.38;4995879;28;20466;-73
2022/03/12 05:57:43;;;;;;;17.27;6.78;;;;;;;2.16;50.97;99090.34;4988842;28;20037;-76
2022/03/12 06:00:11;;;;;;;12.05;6.13;;;;;;;2.22;50.65;99096.09;4970941;28;20077;-76
2022/03/12 06:02:40;;;;;;;12.98;5.80;;;;;;;2.37;50.97;99122.19;4995579;28;20030;-76
2022/03/12 06:05:08;;;;;;;10.57;3.97;;;;;;;2.39;50.46;99090.88;4991607;28;20037;-77
2022/03/12 06:07:35;;;;;;;11.33;5.67;;;;;;;2.49;49.26;99063.28;4995935;28;20057;-74
2022/03/12 06:10:00;;;;;;;12.30;5.95;;;;;;;2.76;49.43;99105.25;4990609;28;20026;-77
2022/03/12 06:12:27;;;;;;;13.20;6.15;;;;;;;2.37;50.29;99066.13;4972772;28;20445;-77
2022/03/12 06:14:56;;;;;;;14.15;6.80;;;;;;;2.44;50.60;99065.53;4976955;28;20045;-75
2022/03/12 06:17:24;;;;;;;15.43;6.78;;;;;;;2.51;50.70;99066.66;4965593;28;20033;-68
2022/03/12 06:19:50;;;;;;;12.93;6.17;;;;;;;2.69;51.18;99118.31;4980585;28;20030;-67
2022/03/12 06:22:16;;;;;;;11.07;5.55;;;;;;;2.84;51.44;99124.88;4981840;28;20296;-66
2022/03/12 06:24:41;;;;;;;11.63;5.78;;;;;;;2.99;50.79;99127.09;4984351;28;20022;-68
2022/03/12 06:27:07;;;;;;;15.00;7.20;;;;;;;2.98;50.47;99133.41;4987573;28;20477;-68
2022/03/12 06:29:33;;;;;;;12.05;6.25;;;;;;;2.96;50.57;99108.66;4973481;28;20030;-67
2022/03/12 06:31:59;;;;;;;12.07;6.43;;;;;;;3.37;50.08;99141.25;4990055;28;20026;-67
2022/03/12 06:34:25;;;;;;;15.10;6.53;;;;;;;3.66;49.61;99127.72;4994185;28;20034;-68
2022/03/12 06:36:50;;;;;;;12.65;6.53;;;;;;;4.86;47.21;99139.75;4993001;28;20359;-67
2022/03/12 06:39:16;;;;;;;12.75;6.20;;;;;;;5.78;44.04;99128.19;4992554;28;20018;-69
2022/03/12 06:41:43;;;;;;;13.45;5.65;;;;;;;6.50;42.44;99122.25;4975161;28;20033;-75
2022/03/12 06:44:09;;;;;;;13.80;6.15;;;;;;;7.45;40.80;99116.94;4977644;28;20030;-72
2022/03/12 06:46:35;;;;;;;11.60;5.93;;;;;;;8.14;38.42;99127.78;4995105;28;20050;-73
2022/03/12 06:49:00;;;;;;;8.88;6.00;;;;;;;8.65;37.29;99127.25;4976936;28;20042;-77
2022/03/12 06:51:26;;;;;;;11.57;6.05;;;;;;;9.04;36.07;99099.16;4977938;28;20030;-74
2022/03/12 06:53:52;;;;;;;14.88;7.35;;;;;;;10.02;35.12;99116.78;4975646;28;20028;-68
2022/03/12 06:56:18;;;;;;;16.15;7.38;;;;;;;10.43;34.37;99127.84;4994666;28;20058;-66
2022/03/12 06:58:44;;;;;;;10.93;6.97;;;;;;;11.19;33.15;99127.97;4993907;28;20109;-66
2022/03/12 07:01:09;;;;;;;14.38;7.15;;;;;;;11.49;32.79;99129.59;4982573;28;20029;-65
2022/03/12 07:03:34;;;;;;;10.88;7.10;;;;;;;12.07;31.67;99117.28;4982640;28;20034;-64
2022/03/12 07:06:00;;;;;;;14.18;7.10;;;;;;;12.70;30.72;99126.97;4971763;28;20473;-65
2022/03/12 07:08:25;;;;;;;12.15;7.00;;;;;;;12.39;31.64;99133.88;4989116;28;20038;-65
2022/03/12 07:10:51;;;;;;;11.80;7.38;;;;;;;12.65;30.74;99130.34;4989173;28;20042;-63
2022/03/12 07:13:17;;;;;;;16.45;8.23;;;;;;;12.57;30.96;99119.66;4986721;28;20030;-65
2022/03/12 07:15:43;;;;;;;17.85;7.47;;;;;;;13.49;30.35;99117.88;4990877;28;20030;-66
2022/03/12 07:18:09;;;;;;;15.88;7.78;;;;;;;13.55;29.67;99108.88;4989089;28;20398;-66
2022/03/12 07:20:34;;;;;;;13.88;8.05;;;;;;;13.50;29.41;99121.44;4990571;28;20026;-65
2022/03/12 07:23:00;;;;;;;13.13;7.57;;;;;;;14.50;28.31;99116.28;4970549;28;20026;-66
2022/03/12 07:25:27;;;;;;;13.10;6.90;;;;;;;13.98;28.12;99110.13;4992743;28;20045;-65
2022/03/12 07:27:54;;;;;;;11.60;7.50;;;;;;;13.75;28.69;99102.50;4989450;28;20061;-65
2022/03/12 07:30:21;;;;;;;10.15;6.47;;;;;;;14.08;28.03;99124.09;4991202;28;20021;-66
2022/03/12 07:32:48;;;;;;;14.65;7.63;;;;;;;14.31;27.22;99106.38;4988623;28;20032;-66
2022/03/12 07:35:17;;;;;;;13.10;6.95;;;;;;;13.66;27.92;99131.81;4984788;28;20019;-63
2022/03/12 07:37:43;;;;;;;13.80;7.60;;;;;;;13.71;28.12;99136.63;4984869;28;20501;-66
2022/03/12 07:40:10;;;;;;;11.57;7.18;;;;;;;13.90;27.47;99118.53;4989414;28;20371;-67
2022/03/12 07:42:37;;;;;;;10.75;7.13;;;;;;;14.72;27.26;99111.28;4986730;28;20127;-73
2022/03/12 07:45:04;;;;;;;13.95;6.82;;;;;;;15.57;26.09;99099.75;4988742;28;20031;-72
2022/03/12 07:47:29;;;;;;;13.68;8.05;;;;;;;15.69;25.51;99114.31;4993646;28;20037;-74
2022/03/12 07:49:54;;;;;;;13.68;7.95;;;;;;;15.19;25.95;99103.50;4994795;28;20034;-75
2022/03/12 07:52:20;;;;;;;12.50;7.78;;;;;;;15.64;25.93;99102.38;4989100;28;20018;-69
2022/03/12 07:54:45;;;;;;;14.75;8.30;;;;;;;16.22;24.59;99101.84;4971825;28;20026;-73
2022/03/12 07:57:11;;;;;;;13.73;7.20;;;;;;;16.97;24.00;99120.38;4988056;28;20023;-75
2022/03/12 07:59:37;;;;;;;12.38;7.93;;;;;;;16.99;23.87;99101.03;5000189;28;20046;-71
2022/03/12 08:02:03;;;;;;;31.50;15.13;;;;;;;17.21;24.03;99120.38;4974338;28;20154;-68
2022/03/12 08:04:32;;;;;;;26.42;14.30;;;;;;;16.98;24.28;99105.66;4979338;28;20147;-68
2022/03/12 08:07:02;;;;;;;19.23;9.88;;;;;;;17.34;23.80;99105.63;4985152;28;20034;-71
2022/03/12 08:09:28;;;;;;;19.23;9.80;;;;;;;16.66;24.02;99110.56;4984518;28;20383;-67
2022/03/12 08:11:53;;;;;;;14.23;9.23;;;;;;;17.10;23.65;99102.91;4990701;28;20081;-75
2022/03/12 08:14:22;;;;;;;18.73;10.52;;;;;;;17.60;23.20;99118.78;4978856;28;20023;-77
2022/03/12 08:16:48;;;;;;;13.68;8.45;;;;;;;18.28;22.47;99113.56;4976303;28;20029;-76
2022/03/12 08:19:13;;;;;;;13.30;8.40;;;;;;;17.88;22.53;99106.25;4977540;28;20494;-76
2022/03/12 08:21:39;;;;;;;13.05;8.55;;;;;;;19.21;21.71;99068.22;4992861;28;20076;-76
2022/03/12 08:24:05;;;;;;;13.77;9.07;;;;;;;19.26;21.45;99084.75;4973561;28;20022;-74
2022/03/12 08:26:32;;;;;;;14.75;9.43;;;;;;;20.30;20.72;99113.22;4992425;28;20026;-75
2022/03/12 08:28:57;;;;;;;11.13;8.40;;;;;;;19.88;21.21;99097.34;4986155;28;20162;-73
2022/03/12 08:31:23;;;;;;;16.10;9.27;;;;;;;20.68;20.89;99105.88;4971033;28;20037;-73
2022/03/12 08:33:49;;;;;;;13.70;9.05;;;;;;;21.11;19.91;99123.25;4994048;28;20494;-73
2022/03/12 08:36:15;;;;;;;14.35;8.43;;;;;;;21.66;19.32;99121.97;4992925;28;20026;-78
2022/03/12 08:38:42;;;;;;;12.70;8.07;;;;;;;20.73;19.35;99103.19;4978969;28;20363;-77
2022/03/12 08:41:10;;;;;;;14.30;8.85;;;;;;;20.33;20.13;99112.69;4975282;28;20026;-75
2022/03/12 08:43:37;;;;;;;13.57;8.63;;;;;;;19.93;19.96;99122.13;4993810;28;20112;-76
2022/03/12 08:46:05;;;;;;;12.25;8.50;;;;;;;22.63;18.57;99102.13;4976706;28;20057;-75
2022/03/12 08:48:31;;;;;;;11.27;8.47;;;;;;;21.04;19.14;99111.69;4980604;28;20049;-77
2022/03/12 08:50:56;;;;;;;11.55;8.13;;;;;;;21.42;18.61;99094.03;4977197;28;20157;-75
2022/03/12 08:53:21;;;;;;;12.93;8.98;;;;;;;21.08;19.45;99096.28;4994110;28;20057;-76
2022/03/12 08:55:48;;;;;;;13.82;8.10;;;;;;;22.47;18.86;99083.91;4995552;28;20134;-74
2022/03/12 08:58:14;;;;;;;16.00;9.70;;;;;;;23.24;17.71;99083.88;4993478;28;20367;-72
2022/03/12 09:00:40;;;;;;;17.05;9.57;;;;;;;21.95;18.33;99091.22;4992045;28;20035;-73
2022/03/12 09:03:06;;;;;;;13.57;9.70;;;;;;;23.19;17.68;99102.13;4994362;28;20030;-74
2022/03/12 09:05:31;;;;;;;11.48;8.35;;;;;;;22.67;18.53;99092.19;4975616;28;20477;-74
2022/03/12 09:07:57;;;;;;;13.57;9.65;;;;;;;22.05;19.04;99094.00;4976967;28;20056;-73
2022/03/12 09:10:23;;;;;;;14.98;9.50;;;;;;;21.66;19.13;99068.81;4992287;28;20030;-73
2022/03/12 09:12:49;;;;;;;11.10;8.60;;;;;;;23.38;18.20;99094.06;4975629;28;20450;-73
2022/03/12 09:15:20;;;;;;;16.13;8.75;;;;;;;22.64;17.78;99101.03;4974724;28;20117;-74
2022/03/12 09:17:45;;;;;;;13.05;9.02;;;;;;;22.30;18.81;99109.81;4992042;28;20033;-66
2022/03/12 09:20:11;;;;;;;13.18;9.35;;;;;;;24.17;17.04;99104.53;4989552;28;20367;-68
2022/03/12 09:22:37;;;;;;;13.00;8.30;;;;;;;22.84;18.13;99089.16;4995868;28;20130;-76
2022/03/12 09:25:03;;;;;;;11.80;8.65;;;;;;;23.10;18.00;99086.41;4992955;28;20120;-75
2022/03/12 09:27:29;;;;;;;12.65;9.45;;;;;;;21.58;19.31;99083.91;4997323;28;20086;-75
2022/03/12 09:29:55;;;;;;;11.70;8.18;;;;;;;22.02;18.48;99089.03;4999066;28;20065;-73
2022/03/12 09:32:20;;;;;;;14.13;10.57;;;;;;;21.29;19.65;99094.47;4996239;28;20018;-74
2022/03/12 09:34:46;;;;;;;13.05;8.75;;;;;;;22.73;18.58;99104.88;4998008;28;20483;-73
2022/03/12 09:37:12;;;;;;;13.45;8.48;;;;;;;22.32;18.98;99084.72;4994460;28;20018;-72
2022/03/12 09:39:37;;;;;;;14.85;8.32;;;;;;;22.08;18.82;99109.16;4977774;28;20474;-73
2022/03/12 09:42:03;;;;;;;11.30;8.05;;;;;;;22.13;18.96;99087.13;4989793;28;20029;-73
2022/03/12 09:44:28;;;;;;;9.80;8.27;;;;;;;22.85;18.27;99096.34;4992075;28;20387;-75
2022/03/12 09:46:55;;;;;;;12.18;8.43;;;;;;;23.93;17.83;99112.69;4976056;28;20109;-76
2022/03/12 09:49:20;;;;;;;12.13;8.70;;;;;;;22.81;18.19;99089.72;4975336;28;20057;-74
2022/03/12 09:51:46;;;;;;;12.20;8.13;;;;;;;24.29;17.71;99105.03;4975843;28;20505;-75
2022/03/12 09:54:12;;;;;;;11.07;8.07;;;;;;;24.95;17.31;99108.44;4993053;28;20026;-73
2022/03/12 09:56:38;;;;;;;15.48;8.77;;;;;;;24.63;17.53;99091.25;4989317;28;20057;-73
2022/03/12 09:59:05;;;;;;;12.82;8.43;;;;;;;24.42;17.87;99089.72;4995306;28;20113;-74
2022/03/12 10:01:31;;;;;;;11.93;8.73;;;;;;;24.85;16.93;99092.72;4998758;28;20476;-66
2022/03/12 10:03:56;;;;;;;12.77;8.80;;;;;;;25.58;16.61;99084.22;4993892;28;22062;-66
2022/03/12 10:06:22;;;;;;;16.65;8.57;;;;;;;25.16;17.60;99076.69;4995897;28;20038;-66
2022/03/12 10:08:47;;;;;;;14.38;9.10;;;;;;;24.39;17.30;99079.22;4988672;28;20532;-66
2022/03/12 10:11:13;;;;;;;11.82;9.40;;;;;;;24.71;16.69;99076.78;4987322;28;20026;-66
2022/03/12 10:13:38;;;;;;;18.02;8.82;;;;;;;25.13;17.22;99072.53;4990764;28;20073;-66
2022/03/12 10:16:04;;;;;;;12.50;8.75;;;;;;;26.30;16.42;99057.50;4992408;28;20018;-65
2022/03/12 10:18:30;;;;;;;14.05;9.38;;;;;;;24.42;17.76;99067.59;4983813;28;20057;-66
2022/03/12 10:20:57;;;;;;;15.60;9.10;;;;;;;23.12;18.00;99051.06;4983811;28;20137;-66
2022/03/12 10:23:23;;;;;;;13.27;8.93;;;;;;;24.49;17.34;99073.66;4980902;28;20034;-67
2022/03/12 10:25:49;;;;;;;14.45;8.52;;;;;;;25.16;17.45;99071.16;4982184;28;20096;-66
2022/03/12 10:28:14;;;;;;;11.75;8.77;;;;;;;25.49;17.91;99069.41;4982799;28;20030;-67
2022/03/12 10:30:39;;;;;;;11.48;8.20;;;;;;;27.27;16.63;99064.22;4981613;28;20030;-67
2022/03/12 10:33:05;;;;;;;13.05;8.63;;;;;;;27.07;16.05;99065.41;4976702;28;20030;-67
2022/03/12 10:35:37;;;;;;;10.10;8.38;;;;;;;26.89;16.42;99067.13;4976335;28;20033;-66
2022/03/12 10:38:08;;;;;;;12.15;8.23;;;;;;;26.89;16.53;99058.78;4976348;28;20034;-66
2022/03/12 10:40:34;;;;;;;10.43;8.65;;;;;;;25.97;17.07;99049.94;4981725;28;20060;-67
2022/03/12 10:43:05;;;;;;;12.73;8.73;;;;;;;25.83;17.18;99054.53;4980191;28;20489;-67
2022/03/12 10:45:37;;;;;;;14.20;8.80;;;;;;;24.14;18.08;99056.16;4982021;28;20069;-67
2022/03/12 10:48:03;;;;;;;13.32;8.95;;;;;;;24.28;18.07;99046.09;4980169;28;20033;-65
2022/03/12 10:50:42;;;;;;;11.00;8.55;;;;;;;26.79;16.57;99033.97;4983832;28;20045;-67
2022/03/12 10:53:09;;;;;;;11.93;8.40;;;;;;;26.89;17.45;99037.41;4984058;28;20026;-66
2022/03/12 10:55:39;;;;;;;10.32;8.27;;;;;;;28.28;16.38;99045.69;4994331;28;20027;-67
2022/03/12 10:58:08;;;;;;;14.85;8.70;;;;;;;29.28;15.46;99040.63;4995658;28;20080;-66
2022/03/12 11:00:47;;;;;;;13.23;8.02;;;;;;;28.41;15.74;99053.97;4996544;28;20034;-67
2022/03/12 11:03:15;;;;;;;11.65;8.07;;;;;;;26.12;17.06;99048.06;4993557;28;20116;-66
2022/03/12 11:05:43;;;;;;;9.95;8.13;;;;;;;26.78;17.00;99029.56;4977101;28;20069;-66
2022/03/12 11:08:16;;;;;;;11.90;8.25;;;;;;;26.64;17.24;99037.84;4991529;28;20038;-66
2022/03/12 11:10:50;;;;;;;10.07;8.45;;;;;;;26.96;16.78;99038.94;4990127;28;20034;-66
2022/03/12 11:13:25;;;;;;;10.43;8.55;;;;;;;28.25;15.75;99036.00;4979721;28;20031;-66
2022/03/12 11:16:07;;;;;;;11.38;8.10;;;;;;;27.44;16.61;99028.31;4987481;28;20030;-67
2022/03/12 11:18:34;;;;;;;11.05;8.90;;;;;;;26.58;18.07;99025.19;4986238;28;20450;-67
2022/03/12 11:20:59;;;;;;;9.55;7.70;;;;;;;27.48;17.46;99025.72;4980906;28;20039;-67
2022/03/12 11:23:29;;;;;;;11.75;8.48;;;;;;;27.03;17.05;99019.94;4982719;28;20091;-66
2022/03/12 11:26:05;;;;;;;12.65;8.63;;;;;;;26.23;18.00;99010.75;4979207;28;20034;-68
2022/03/12 11:28:32;;;;;;;11.07;8.20;;;;;;;26.76;18.15;99024.31;4988582;28;20494;-67
2022/03/12 11:30:58;;;;;;;9.93;8.10;;;;;;;27.23;17.26;99000.13;4992088;28;20033;-66